Time;durP1;ratioP1;P1;durP2;ratioP2;P2;SDS_P1;SDS_P2;PMS_P1;PMS_P2;Temp;Humidity;BMP_temperature;BMP_pressure;BME280_temperature;BME280_humidity;BME280_pressure;Samples;Min_cycle;Max_cycle;Signal;HPM_P1;HPM_P2
2023/04/21 00:00:12;;;;;;;25.13;14.07;;;;;;;;;;4970963;28;20465;-65
2023/04/21 00:02:38;;;;;;;30.60;14.53;;;;;;;;;;4971058;28;20105;-67
2023/04/21 00:05:04;;;;;;;28.35;15.02;;;;;;;;;;4970972;28;20019;-65
2023/04/21 00:07:29;;;;;;;26.70;14.82;;;;;;;;;;4971671;28;20027;-71
2023/04/21 00:09:54;;;;;;;25.85;13.13;;;;;;;;;;4968406;28;20038;-66
2023/04/21 00:12:20;;;;;;;26.07;13.90;;;;;;;;;;4972162;28;20050;-69
2023/04/21 00:14:46;;;;;;;27.70;14.50;;;;;;;;;;4970792;28;20019;-64
2023/04/21 00:17:11;;;;;;;30.10;15.65;;;;;;;;;;4971477;28;20030;-65
2023/04/21 00:19:38;;;;;;;26.33;13.73;;;;;;;;;;4971218;28;20386;-67
2023/04/21 00:22:03;;;;;;;25.48;13.40;;;;;;;;;;4971989;28;20074;-65
2023/04/21 00:24:28;;;;;;;28.20;14.80;;;;;;;;;;4969879;28;20030;-66
2023/04/21 00:26:54;;;;;;;27.02;13.65;;;;;;;;;;4969746;28;20026;-65
2023/04/21 00:29:20;;;;;;;25.05;13.90;;;;;;;;;;4968302;28;20047;-68
2023/04/21 00:31:45;;;;;;;24.20;13.38;;;;;;;;;;4970747;28;20046;-63
2023/04/21 00:34:10;;;;;;;28.13;14.10;;;;;;;;;;4967888;28;20027;-67
2023/04/21 00:36:35;;;;;;;25.93;12.77;;;;;;;;;;4970501;28;20384;-64
2023/04/21 00:39:00;;;;;;;23.43;12.87;;;;;;;;;;4971528;28;20062;-66
2023/04/21 00:41:27;;;;;;;24.70;12.70;;;;;;;;;;4972222;28;20019;-64
2023/04/21 00:43:58;;;;;;;25.35;13.63;;;;;;;;;;4970324;28;20023;-67
2023/04/21 00:46:23;;;;;;;25.75;12.77;;;;;;;;;;4971863;28;20037;-76
2023/04/21 00:48:49;;;;;;;22.15;12.45;;;;;;;;;;4971006;28;20019;-66
2023/04/21 00:51:14;;;;;;;23.73;12.93;;;;;;;;;;4972263;28;20438;-63
2023/04/21 00:53:39;;;;;;;25.38;13.35;;;;;;;;;;4974335;28;20019;-65
2023/04/21 00:56:05;;;;;;;26.65;13.05;;;;;;;;;;4973033;28;20035;-65
2023/04/21 00:58:31;;;;;;;26.03;12.37;;;;;;;;;;4979262;28;20019;-66
2023/04/21 01:00:57;;;;;;;23.27;13.07;;;;;;;;;;4971465;28;20521;-70
2023/04/21 01:03:22;;;;;;;25.52;13.13;;;;;;;;;;4964938;28;20034;-64
2023/04/21 01:05:47;;;;;;;26.02;13.57;;;;;;;;;;4971225;28;20033;-65
2023/04/21 01:08:13;;;;;;;27.30;13.68;;;;;;;;;;4970317;28;20390;-67
2023/04/21 01:10:38;;;;;;;23.33;12.52;;;;;;;;;;4971047;28;20048;-64
2023/04/21 01:13:03;;;;;;;27.00;13.23;;;;;;;;;;4972905;28;20021;-65
2023/04/21 01:15:30;;;;;;;27.10;13.97;;;;;;;;;;4972314;28;20031;-66
2023/04/21 01:17:55;;;;;;;28.45;14.65;;;;;;;;;;4970667;28;20026;-65
2023/04/21 01:20:21;;;;;;;32.42;16.02;;;;;;;;;;4972234;28;20327;-68
2023/04/21 01:22:46;;;;;;;25.95;14.23;;;;;;;;;;4975000;28;20458;-65
2023/04/21 01:25:11;;;;;;;32.50;16.10;;;;;;;;;;4977803;28;20086;-67
2023/04/21 01:27:36;;;;;;;33.30;16.17;;;;;;;;;;4971845;28;20038;-66
2023/04/21 01:30:02;;;;;;;27.70;14.93;;;;;;;;;;4979944;28;20015;-70
2023/04/21 01:32:28;;;;;;;27.70;14.18;;;;;;;;;;4971710;28;20023;-72
2023/04/21 01:34:54;;;;;;;26.33;13.85;;;;;;;;;;4970406;28;20016;-65
2023/04/21 01:37:21;;;;;;;26.08;14.40;;;;;;;;;;4975431;28;20026;-66
2023/04/21 01:39:50;;;;;;;24.73;13.13;;;;;;;;;;4977646;28;20105;-66
2023/04/21 01:42:15;;;;;;;30.08;14.63;;;;;;;;;;4972618;28;20026;-68
2023/04/21 01:44:40;;;;;;;26.15;13.82;;;;;;;;;;4979375;28;20037;-65
2023/04/21 01:47:06;;;;;;;26.93;14.23;;;;;;;;;;4972804;28;20080;-66
2023/04/21 01:49:31;;;;;;;25.42;13.75;;;;;;;;;;4970795;28;20576;-71
2023/04/21 01:51:56;;;;;;;27.80;14.30;;;;;;;;;;4969855;28;20057;-65
2023/04/21 01:54:21;;;;;;;24.67;13.88;;;;;;;;;;4971111;28;20479;-69
2023/04/21 01:56:46;;;;;;;33.03;15.18;;;;;;;;;;4977158;28;20197;-67
2023/04/21 01:59:12;;;;;;;31.90;15.93;;;;;;;;;;4972629;28;20038;-64
2023/04/21 02:01:37;;;;;;;32.07;16.50;;;;;;;;;;4975913;28;20085;-64
2023/04/21 02:04:04;;;;;;;28.33;14.15;;;;;;;;;;4973225;28;20025;-65
2023/04/21 02:06:30;;;;;;;;;;;;;;;;;;4978215;28;20760;-65
2023/04/21 02:08:55;;;;;;;26.45;13.10;;;;;;;;;;4966949;28;20055;-64
2023/04/21 02:11:20;;;;;;;29.73;14.02;;;;;;;;;;4966898;28;20098;-66
2023/04/21 02:13:46;;;;;;;27.33;13.93;;;;;;;;;;4971923;28;20019;-66
2023/04/21 02:16:11;;;;;;;26.00;13.20;;;;;;;;;;4967775;28;20817;-64
2023/04/21 02:18:38;;;;;;;25.00;13.35;;;;;;;;;;4971884;28;20454;-65
2023/04/21 02:21:04;;;;;;;27.45;13.82;;;;;;;;;;4973721;28;20027;-76
2023/04/21 02:23:29;;;;;;;23.53;13.73;;;;;;;;;;4979836;28;20025;-67
2023/04/21 02:25:54;;;;;;;24.30;14.20;;;;;;;;;;4970401;28;20442;-64
2023/04/21 02:28:19;;;;;;;24.88;13.48;;;;;;;;;;4972352;28;20893;-64
2023/04/21 02:30:44;;;;;;;26.08;13.38;;;;;;;;;;4972911;28;20474;-67
2023/04/21 02:33:10;;;;;;;24.60;13.90;;;;;;;;;;4968584;28;20025;-69
2023/04/21 02:35:35;;;;;;;29.90;15.77;;;;;;;;;;4975187;28;20089;-65
2023/04/21 02:38:06;;;;;;;24.63;13.48;;;;;;;;;;4980488;28;20021;-67
2023/04/21 02:40:31;;;;;;;25.42;13.57;;;;;;;;;;4977602;28;20374;-65
2023/04/21 02:42:56;;;;;;;27.55;15.02;;;;;;;;;;4978879;28;20022;-67
2023/04/21 02:45:21;;;;;;;25.90;13.88;;;;;;;;;;4983840;28;20023;-70
2023/04/21 02:47:46;;;;;;;27.45;14.32;;;;;;;;;;4981233;28;20474;-67
2023/04/21 02:50:12;;;;;;;25.90;13.00;;;;;;;;;;4979754;28;20033;-65
2023/04/21 02:52:37;;;;;;;25.65;13.75;;;;;;;;;;4966017;28;20042;-76
2023/04/21 02:55:03;;;;;;;27.33;14.10;;;;;;;;;;4975916;28;20033;-67
2023/04/21 02:57:28;;;;;;;25.50;12.73;;;;;;;;;;4978615;28;20390;-65
2023/04/21 02:59:53;;;;;;;24.42;13.23;;;;;;;;;;4970171;28;20503;-65
2023/04/21 03:02:18;;;;;;;25.87;13.63;;;;;;;;;;4973673;28;20015;-66
2023/04/21 03:04:44;;;;;;;30.25;15.38;;;;;;;;;;4976587;28;20486;-71
2023/04/21 03:07:12;;;;;;;26.20;13.73;;;;;;;;;;4973590;28;20482;-66
2023/04/21 03:09:38;;;;;;;27.83;14.60;;;;;;;;;;4962458;28;20068;-64
2023/04/21 03:12:03;;;;;;;26.90;14.48;;;;;;;;;;4970177;28;20050;-65
2023/04/21 03:14:28;;;;;;;24.42;13.27;;;;;;;;;;4969268;28;20025;-68
2023/04/21 03:16:53;;;;;;;24.40;13.30;;;;;;;;;;4964375;28;20090;-64
2023/04/21 03:19:18;;;;;;;24.25;12.93;;;;;;;;;;4971699;28;20101;-64
2023/04/21 03:21:43;;;;;;;25.15;12.98;;;;;;;;;;4969638;28;20042;-72
2023/04/21 03:24:09;;;;;;;23.65;12.75;;;;;;;;;;4975567;28;20030;-69
2023/04/21 03:26:34;;;;;;;25.23;13.43;;;;;;;;;;4972723;28;20046;-65
2023/04/21 03:28:59;;;;;;;26.83;14.33;;;;;;;;;;4971550;28;20018;-65
2023/04/21 03:31:24;;;;;;;24.00;12.40;;;;;;;;;;4964925;28;20528;-64
2023/04/21 03:33:49;;;;;;;25.67;12.90;;;;;;;;;;4976306;28;20049;-64
2023/04/21 03:36:15;;;;;;;25.30;13.38;;;;;;;;;;4968812;28;20025;-69
2023/04/21 03:38:40;;;;;;;25.93;13.87;;;;;;;;;;4968354;28;20038;-64
2023/04/21 03:41:05;;;;;;;27.80;14.43;;;;;;;;;;4976220;28;20379;-68
2023/04/21 03:43:30;;;;;;;26.27;14.48;;;;;;;;;;4973171;28;20110;-66
2023/04/21 03:45:55;;;;;;;26.33;14.40;;;;;;;;;;4971706;28;20023;-66
2023/04/21 03:48:20;;;;;;;25.83;13.23;;;;;;;;;;4973539;28;20026;-67
2023/04/21 03:50:47;;;;;;;25.88;13.63;;;;;;;;;;4980548;28;20023;-69
2023/04/21 03:53:12;;;;;;;25.90;13.35;;;;;;;;;;4987113;28;20519;-68
2023/04/21 03:55:37;;;;;;;26.30;13.30;;;;;;;;;;4974636;28;20057;-68
2023/04/21 03:58:02;;;;;;;30.70;13.95;;;;;;;;;;4971606;28;20026;-65
2023/04/21 04:00:27;;;;;;;25.70;14.40;;;;;;;;;;4970416;28;20079;-66
2023/04/21 04:02:53;;;;;;;26.43;13.43;;;;;;;;;;4970693;28;20041;-65
2023/04/21 04:05:18;;;;;;;31.37;14.30;;;;;;;;;;4970388;28;20443;-65
2023/04/21 04:07:44;;;;;;;22.95;12.45;;;;;;;;;;4979669;28;20054;-64
2023/04/21 04:10:09;;;;;;;25.02;13.23;;;;;;;;;;4971303;28;20023;-64
2023/04/21 04:12:34;;;;;;;22.77;12.20;;;;;;;;;;4977001;28;20022;-64
2023/04/21 04:15:00;;;;;;;22.27;11.33;;;;;;;;;;4970703;28;20026;-64
2023/04/21 04:17:25;;;;;;;24.10;13.20;;;;;;;;;;4968069;28;20160;-64
2023/04/21 04:19:50;;;;;;;23.55;11.82;;;;;;;;;;4968775;28;20018;-65
2023/04/21 04:22:15;;;;;;;28.08;13.63;;;;;;;;;;4967061;28;20050;-67
2023/04/21 04:24:40;;;;;;;23.98;12.10;;;;;;;;;;4965562;28;20483;-65
2023/04/21 04:27:05;;;;;;;23.83;12.18;;;;;;;;;;4959609;28;20037;-65
2023/04/21 04:29:31;;;;;;;28.48;13.05;;;;;;;;;;4964978;28;20080;-73
2023/04/21 04:31:56;;;;;;;24.95;12.35;;;;;;;;;;4954528;28;20065;-67
2023/04/21 04:34:22;;;;;;;24.45;12.98;;;;;;;;;;4956345;28;20031;-73
2023/04/21 04:36:49;;;;;;;21.13;11.90;;;;;;;;;;4962070;28;20031;-67
2023/04/21 04:39:15;;;;;;;21.95;12.13;;;;;;;;;;4963798;28;20034;-64
2023/04/21 04:41:40;;;;;;;23.27;12.20;;;;;;;;;;4964830;28;20050;-69
2023/04/21 04:44:05;;;;;;;22.08;12.18;;;;;;;;;;4968081;28;20026;-65
2023/04/21 04:46:31;;;;;;;24.13;13.33;;;;;;;;;;4967474;28;20081;-70
2023/04/21 04:48:56;;;;;;;20.75;11.45;;;;;;;;;;4968783;28;20046;-68
2023/04/21 04:51:22;;;;;;;20.48;12.75;;;;;;;;;;4971339;28;20026;-69
2023/04/21 04:53:47;;;;;;;24.08;12.35;;;;;;;;;;4971333;28;20037;-66
2023/04/21 04:56:12;;;;;;;25.17;12.88;;;;;;;;;;4962923;28;20030;-68
2023/04/21 04:58:38;;;;;;;22.87;11.93;;;;;;;;;;4973416;28;20495;-65
2023/04/21 05:01:09;;;;;;;23.20;11.90;;;;;;;;;;4974079;28;20446;-67
2023/04/21 05:03:35;;;;;;;20.92;11.43;;;;;;;;;;4970517;28;20084;-69
2023/04/21 05:06:00;;;;;;;22.50;11.15;;;;;;;;;;4970893;28;20031;-70
2023/04/21 05:08:25;;;;;;;22.20;11.60;;;;;;;;;;4975134;28;20037;-68
2023/04/21 05:10:50;;;;;;;24.80;11.32;;;;;;;;;;4972381;28;20877;-69
2023/04/21 05:13:16;;;;;;;29.58;12.80;;;;;;;;;;4970262;28;20023;-68
2023/04/21 05:15:41;;;;;;;21.05;11.77;;;;;;;;;;4974230;28;20035;-69
2023/04/21 05:18:06;;;;;;;25.23;12.48;;;;;;;;;;4973117;28;20027;-65
2023/04/21 05:20:31;;;;;;;22.40;12.52;;;;;;;;;;4969919;28;20411;-65
2023/04/21 05:22:56;;;;;;;19.98;11.55;;;;;;;;;;4973850;28;20577;-64
2023/04/21 05:25:22;;;;;;;18.75;11.13;;;;;;;;;;4976470;28;20053;-63
2023/04/21 05:27:47;;;;;;;20.23;11.37;;;;;;;;;;4977926;28;20471;-65
2023/04/21 05:30:13;;;;;;;19.57;11.40;;;;;;;;;;4975427;28;20019;-65
2023/04/21 05:32:38;;;;;;;23.45;12.50;;;;;;;;;;4974651;28;20027;-67
2023/04/21 05:35:04;;;;;;;23.47;11.83;;;;;;;;;;4975270;28;20019;-65
2023/04/21 05:37:29;;;;;;;19.05;11.35;;;;;;;;;;4972820;28;20121;-65
2023/04/21 05:39:54;;;;;;;20.15;11.18;;;;;;;;;;4972581;28;20498;-65
2023/04/21 05:42:20;;;;;;;18.73;11.47;;;;;;;;;;4964721;28;20026;-69
2023/04/21 05:44:45;;;;;;;18.77;10.27;;;;;;;;;;4973164;28;20074;-68
2023/04/21 05:47:10;;;;;;;19.13;10.70;;;;;;;;;;4955261;28;20019;-64
2023/04/21 05:49:36;;;;;;;21.05;10.93;;;;;;;;;;4956228;28;20031;-67
2023/04/21 05:52:01;;;;;;;20.98;10.50;;;;;;;;;;4968615;28;20065;-66
2023/04/21 05:54:26;;;;;;;17.23;10.67;;;;;;;;;;4962691;28;20090;-60
2023/04/21 05:56:51;;;;;;;18.73;10.47;;;;;;;;;;4973486;28;20026;-61
2023/04/21 05:59:16;;;;;;;19.38;10.68;;;;;;;;;;4976555;28;20022;-61
2023/04/21 06:01:42;;;;;;;19.63;11.02;;;;;;;;;;4974498;28;20026;-62
2023/04/21 06:04:07;;;;;;;19.33;10.65;;;;;;;;;;4977389;28;20030;-61
2023/04/21 06:06:32;;;;;;;23.30;10.37;;;;;;;;;;4970519;28;20611;-61
2023/04/21 06:08:57;;;;;;;16.77;9.88;;;;;;;;;;4974247;28;20028;-63
2023/04/21 06:11:22;;;;;;;19.30;10.30;;;;;;;;;;4972865;28;20118;-66
2023/04/21 06:13:48;;;;;;;24.23;10.10;;;;;;;;;;4973485;28;20023;-64
2023/04/21 06:16:13;;;;;;;18.38;10.35;;;;;;;;;;4969873;28;20023;-65
2023/04/21 06:18:38;;;;;;;17.88;9.50;;;;;;;;;;4972648;28;20078;-65
2023/04/21 06:21:03;;;;;;;16.27;9.13;;;;;;;;;;4973060;28;20391;-65
2023/04/21 06:23:29;;;;;;;18.88;10.32;;;;;;;;;;4972816;28;20050;-63
2023/04/21 06:25:58;;;;;;;17.27;9.83;;;;;;;;;;4974174;28;20037;-65
2023/04/21 06:28:23;;;;;;;19.52;9.75;;;;;;;;;;4972506;28;20026;-63
2023/04/21 06:30:48;;;;;;;16.02;9.65;;;;;;;;;;4976702;28;20038;-67
2023/04/21 06:33:13;;;;;;;18.35;10.15;;;;;;;;;;4974235;28;20107;-66
2023/04/21 06:35:38;;;;;;;17.43;9.33;;;;;;;;;;4972700;28;20047;-65
2023/04/21 06:38:03;;;;;;;17.92;10.80;;;;;;;;;;4965922;28;20030;-73
2023/04/21 06:40:28;;;;;;;16.27;9.67;;;;;;;;;;4975836;28;20089;-68
2023/04/21 06:42:54;;;;;;;19.38;10.70;;;;;;;;;;4976036;28;20485;-65
2023/04/21 06:45:19;;;;;;;18.70;10.48;;;;;;;;;;4972499;28;20083;-65
2023/04/21 06:47:45;;;;;;;18.07;9.67;;;;;;;;;;4976922;28;20642;-68
2023/04/21 06:50:11;;;;;;;16.55;9.20;;;;;;;;;;4985575;28;20498;-65
2023/04/21 06:52:36;;;;;;;16.25;9.88;;;;;;;;;;4972575;28;20029;-70
2023/04/21 06:55:01;;;;;;;15.50;8.80;;;;;;;;;;4971662;28;20026;-65
2023/04/21 06:57:26;;;;;;;16.80;9.48;;;;;;;;;;4971695;28;20031;-67
2023/04/21 06:59:52;;;;;;;14.80;9.37;;;;;;;;;;4971494;28;20026;-65
2023/04/21 07:02:17;;;;;;;17.05;9.52;;;;;;;;;;4981035;28;20368;-66
2023/04/21 07:04:42;;;;;;;19.93;10.30;;;;;;;;;;4973090;28;20098;-64
2023/04/21 07:07:07;;;;;;;14.70;8.85;;;;;;;;;;4973589;28;20491;-66
2023/04/21 07:09:32;;;;;;;14.82;8.65;;;;;;;;;;4970848;28;20027;-64
2023/04/21 07:11:58;;;;;;;17.65;9.27;;;;;;;;;;4970252;28;20073;-72
2023/04/21 07:14:23;;;;;;;18.75;9.07;;;;;;;;;;4971484;28;20478;-66
2023/04/21 07:16:48;;;;;;;16.40;8.77;;;;;;;;;;4972245;28;20034;-64
2023/04/21 07:19:13;;;;;;;14.73;8.32;;;;;;;;;;4973190;28;20047;-67
2023/04/21 07:21:39;;;;;;;17.70;8.63;;;;;;;;;;4973534;28;20038;-68
2023/04/21 07:24:04;;;;;;;16.95;8.98;;;;;;;;;;4973264;28;20125;-64
2023/04/21 07:26:29;;;;;;;17.35;8.88;;;;;;;;;;4971371;28;20046;-67
2023/04/21 07:28:57;;;;;;;17.98;9.00;;;;;;;;;;4964573;28;20022;-65
2023/04/21 07:31:22;;;;;;;15.68;9.05;;;;;;;;;;4973074;28;20033;-65
2023/04/21 07:33:47;;;;;;;15.13;8.23;;;;;;;;;;4976257;28;20372;-65
2023/04/21 07:36:12;;;;;;;16.40;8.60;;;;;;;;;;4972579;28;20026;-65
2023/04/21 07:38:41;;;;;;;16.92;8.68;;;;;;;;;;4955726;28;20019;-73
2023/04/21 07:41:07;;;;;;;15.43;8.30;;;;;;;;;;4953550;28;20405;-65
2023/04/21 07:43:32;;;;;;;16.10;8.33;;;;;;;;;;4958865;28;20446;-65
2023/04/21 07:45:57;;;;;;;13.48;8.00;;;;;;;;;;4968664;28;20019;-64
2023/04/21 07:48:23;;;;;;;12.97;6.40;;;;;;;;;;4952563;28;20031;-65
2023/04/21 07:50:49;;;;;;;15.30;6.82;;;;;;;;;;4953552;28;20031;-65
2023/04/21 07:53:14;;;;;;;13.32;7.60;;;;;;;;;;4953204;28;20023;-64
2023/04/21 07:55:39;;;;;;;13.38;6.70;;;;;;;;;;4953389;28;20025;-68
2023/04/21 07:58:05;;;;;;;13.52;6.20;;;;;;;;;;4957697;28;20062;-65
2023/04/21 08:00:30;;;;;;;13.27;6.22;;;;;;;;;;4964786;28;20027;-66
2023/04/21 08:02:55;;;;;;;13.33;6.30;;;;;;;;;;4972926;28;20030;-68
2023/04/21 08:05:21;;;;;;;12.07;5.40;;;;;;;;;;4972662;28;20034;-64
2023/04/21 08:07:46;;;;;;;12.80;5.68;;;;;;;;;;4972006;28;20025;-66
2023/04/21 08:10:11;;;;;;;9.87;5.40;;;;;;;;;;4972391;28;20027;-64
2023/04/21 08:12:36;;;;;;;14.30;5.00;;;;;;;;;;4972500;28;20051;-66
2023/04/21 08:15:04;;;;;;;14.83;5.90;;;;;;;;;;4970486;28;20141;-66
2023/04/21 08:17:29;;;;;;;11.27;4.88;;;;;;;;;;4970810;28;20529;-67
2023/04/21 08:19:54;;;;;;;9.10;4.20;;;;;;;;;;4972379;28;20059;-64
2023/04/21 08:22:20;;;;;;;8.77;4.50;;;;;;;;;;4971488;28;20023;-66
2023/04/21 08:24:45;;;;;;;11.48;4.35;;;;;;;;;;4973384;28;20150;-65
2023/04/21 08:27:11;;;;;;;9.60;4.18;;;;;;;;;;4972558;28;20025;-65
2023/04/21 08:29:36;;;;;;;10.48;3.58;;;;;;;;;;4972077;28;20038;-67
2023/04/21 08:32:01;;;;;;;12.50;3.10;;;;;;;;;;4971009;28;20391;-64
2023/04/21 08:34:26;;;;;;;10.70;3.28;;;;;;;;;;4971844;28;20054;-65
2023/04/21 08:36:51;;;;;;;10.50;2.72;;;;;;;;;;4952519;28;20035;-64
2023/04/21 08:39:16;;;;;;;9.83;3.20;;;;;;;;;;4952955;28;20403;-65
2023/04/21 08:41:41;;;;;;;7.97;2.57;;;;;;;;;;4952326;28;20027;-65
2023/04/21 08:44:14;;;;;;;8.05;2.60;;;;;;;;;;4952771;28;20023;-65
2023/04/21 08:46:39;;;;;;;7.85;2.83;;;;;;;;;;4954897;28;20034;-64
2023/04/21 08:49:04;;;;;;;8.85;2.63;;;;;;;;;;4971606;28;20069;-67
2023/04/21 08:51:30;;;;;;;9.57;2.93;;;;;;;;;;4956347;28;20023;-66
2023/04/21 08:53:56;;;;;;;9.23;2.80;;;;;;;;;;4952568;28;20425;-64
2023/04/21 08:56:23;;;;;;;8.65;3.30;;;;;;;;;;4952120;28;20035;-64
2023/04/21 08:58:48;;;;;;;8.20;2.92;;;;;;;;;;4971254;28;20077;-64
2023/04/21 09:01:13;;;;;;;12.10;2.80;;;;;;;;;;4970337;28;20430;-65
2023/04/21 09:03:38;;;;;;;9.32;2.70;;;;;;;;;;4971068;28;20026;-64
2023/04/21 09:06:04;;;;;;;10.50;2.45;;;;;;;;;;4967385;28;20022;-65
2023/04/21 09:08:31;;;;;;;12.77;2.50;;;;;;;;;;4952370;28;20030;-67
2023/04/21 09:10:56;;;;;;;12.25;2.58;;;;;;;;;;4954008;28;20042;-65
2023/04/21 09:13:28;;;;;;;9.63;2.50;;;;;;;;;;4953703;28;20035;-66
2023/04/21 09:15:53;;;;;;;8.85;2.50;;;;;;;;;;4971580;28;20062;-68
2023/04/21 09:18:20;;;;;;;12.18;2.50;;;;;;;;;;4959429;28;20026;-68
2023/04/21 09:20:46;;;;;;;9.30;2.60;;;;;;;;;;4961309;28;20038;-68
2023/04/21 09:23:11;;;;;;;9.73;2.40;;;;;;;;;;4962969;28;20024;-66
2023/04/21 09:25:40;;;;;;;7.57;2.57;;;;;;;;;;4979613;28;20034;-65
2023/04/21 09:28:09;;;;;;;11.38;2.47;;;;;;;;;;4970081;28;20123;-68
2023/04/21 09:30:35;;;;;;;10.88;2.15;;;;;;;;;;4958972;28;20071;-66
2023/04/21 09:33:00;;;;;;;6.95;2.15;;;;;;;;;;4953195;28;20183;-64
2023/04/21 09:35:33;;;;;;;7.93;2.10;;;;;;;;;;4956576;28;20493;-65
2023/04/21 09:37:59;;;;;;;8.55;2.20;;;;;;;;;;4955566;28;20502;-66
2023/04/21 09:40:24;;;;;;;;;;;;;;;;;;4973002;28;20035;-66
2023/04/21 09:42:49;;;;;;;7.60;2.10;;;;;;;;;;4973971;28;20004;-65
2023/04/21 09:45:16;;;;;;;6.17;1.83;;;;;;;;;;4961296;28;20030;-64
2023/04/21 09:47:42;;;;;;;7.50;2.25;;;;;;;;;;4956647;28;20024;-64
2023/04/21 09:50:08;;;;;;;8.60;1.90;;;;;;;;;;4957167;28;20034;-66
2023/04/21 09:52:33;;;;;;;;;;;;;;;;;;4957478;28;20034;-66
2023/04/21 09:55:03;;;;;;;8.20;1.90;;;;;;;;;;4956332;28;19918;-65
2023/04/21 09:57:29;;;;;;;9.35;2.10;;;;;;;;;;4966718;28;20035;-65
2023/04/21 10:00:01;;;;;;;7.63;2.08;;;;;;;;;;4974325;28;20082;-66
2023/04/21 10:02:29;;;;;;;7.28;2.22;;;;;;;;;;4974502;28;20019;-66
2023/04/21 10:04:54;;;;;;;12.40;2.53;;;;;;;;;;4974263;28;20053;-66
2023/04/21 10:07:19;;;;;;;11.57;2.30;;;;;;;;;;4974315;28;20095;-65
2023/04/21 10:09:46;;;;;;;7.33;2.00;;;;;;;;;;4973282;28;20041;-65
2023/04/21 10:12:12;;;;;;;10.90;2.40;;;;;;;;;;4968868;28;20475;-64
2023/04/21 10:14:37;;;;;;;10.60;2.30;;;;;;;;;;4954750;28;20983;-65
2023/04/21 10:17:04;;;;;;;9.57;2.08;;;;;;;;;;4954837;28;20448;-67
2023/04/21 10:19:34;;;;;;;7.95;2.25;;;;;;;;;;4955378;28;20110;-64
2023/04/21 10:21:59;;;;;;;9.43;2.40;;;;;;;;;;4970041;28;20034;-66
2023/04/21 10:24:28;;;;;;;10.70;2.30;;;;;;;;;;4970849;28;20029;-67
2023/04/21 10:26:55;;;;;;;8.73;2.10;;;;;;;;;;4973273;28;20646;-64
2023/04/21 10:29:28;;;;;;;10.45;2.53;;;;;;;;;;4969164;28;20034;-71
2023/04/21 10:31:54;;;;;;;7.50;1.92;;;;;;;;;;4962851;28;20030;-65
2023/04/21 10:34:19;;;;;;;6.47;1.92;;;;;;;;;;4954322;28;20098;-65
2023/04/21 10:36:44;;;;;;;9.23;2.10;;;;;;;;;;4954011;28;20050;-67
2023/04/21 10:39:15;;;;;;;7.50;1.90;;;;;;;;;;4955782;28;20015;-66
2023/04/21 10:41:41;;;;;;;11.07;2.05;;;;;;;;;;4972399;28;20785;-66
2023/04/21 10:44:10;;;;;;;9.48;2.08;;;;;;;;;;4954352;28;20027;-67
2023/04/21 10:46:40;;;;;;;8.07;2.15;;;;;;;;;;4952870;28;20023;-67
2023/04/21 10:49:05;;;;;;;9.60;2.08;;;;;;;;;;4953939;28;20325;-66
2023/04/21 10:51:33;;;;;;;8.37;2.10;;;;;;;;;;4954581;28;20027;-65
2023/04/21 10:53:58;;;;;;;7.82;2.20;;;;;;;;;;4965567;28;20069;-67
2023/04/21 10:56:24;;;;;;;10.02;2.35;;;;;;;;;;4971453;28;20526;-66
2023/04/21 10:58:51;;;;;;;6.68;1.90;;;;;;;;;;4988163;28;20033;-66
2023/04/21 11:01:16;;;;;;;7.00;2.00;;;;;;;;;;4973274;28;20025;-65
2023/04/21 11:03:41;;;;;;;5.32;2.00;;;;;;;;;;4973354;28;20011;-64
2023/04/21 11:06:14;;;;;;;7.60;2.00;;;;;;;;;;4973478;28;20019;-67
2023/04/21 11:08:39;;;;;;;;;;;;;;;;;;4973198;28;20023;-68
2023/04/21 11:11:04;;;;;;;8.48;1.75;;;;;;;;;;4972242;28;19910;-64
2023/04/21 11:13:32;;;;;;;6.28;1.80;;;;;;;;;;4972955;28;20019;-66
2023/04/21 11:15:58;;;;;;;5.10;1.70;;;;;;;;;;4953631;29;20487;-72
2023/04/21 11:18:33;;;;;;;7.50;1.70;;;;;;;;;;4953641;28;20027;-64
2023/04/21 11:21:10;;;;;;;11.55;2.20;;;;;;;;;;4954228;28;20035;-69
2023/04/21 11:23:39;;;;;;;7.20;1.73;;;;;;;;;;4953913;28;20454;-65
2023/04/21 11:26:04;;;;;;;7.80;2.03;;;;;;;;;;4960830;28;20046;-66
2023/04/21 11:28:29;;;;;;;9.27;2.30;;;;;;;;;;4970429;28;20431;-67
2023/04/21 11:30:54;;;;;;;5.82;1.95;;;;;;;;;;4972079;28;20901;-66
2023/04/21 11:33:19;;;;;;;8.32;2.25;;;;;;;;;;4958094;28;20395;-69
2023/04/21 11:35:44;;;;;;;8.27;2.00;;;;;;;;;;4953742;28;20126;-66
2023/04/21 11:38:11;;;;;;;9.10;2.10;;;;;;;;;;4953222;28;20051;-65
2023/04/21 11:40:46;;;;;;;10.25;2.08;;;;;;;;;;4953788;28;20050;-65
2023/04/21 11:43:11;;;;;;;9.65;2.10;;;;;;;;;;4957204;28;20011;-67
2023/04/21 11:45:38;;;;;;;9.43;2.22;;;;;;;;;;4971981;28;20031;-65
2023/04/21 11:48:16;;;;;;;6.57;2.28;;;;;;;;;;4953057;28;20059;-66
2023/04/21 11:50:48;;;;;;;9.75;2.10;;;;;;;;;;4953337;28;20034;-64
2023/04/21 11:53:14;;;;;;;;;;;;;;;;;;4959749;28;20455;-65
2023/04/21 11:55:45;;;;;;;9.13;2.08;;;;;;;;;;4972816;28;19989;-66
2023/04/21 11:58:14;;;;;;;;;;;;;;;;;;4970891;28;20046;-65
2023/04/21 12:00:40;;;;;;;6.75;2.08;;;;;;;;;;4971401;28;19917;-67
2023/04/21 12:03:07;;;;;;;9.40;2.53;;;;;;;;;;4969644;28;20022;-65
2023/04/21 12:05:35;;;;;;;6.72;2.05;;;;;;;;;;4956570;28;20027;-64
2023/04/21 12:08:02;;;;;;;8.30;1.98;;;;;;;;;;4953423;28;20685;-66
2023/04/21 12:10:27;;;;;;;8.75;2.17;;;;;;;;;;4954330;28;20054;-69
2023/04/21 12:12:54;;;;;;;6.63;1.97;;;;;;;;;;4955773;28;20039;-66
2023/04/21 12:15:21;;;;;;;10.80;1.92;;;;;;;;;;4978257;28;20029;-65
2023/04/21 12:17:47;;;;;;;9.18;2.38;;;;;;;;;;4974040;28;20026;-65
2023/04/21 12:20:16;;;;;;;6.75;1.92;;;;;;;;;;4971544;28;20073;-67
2023/04/21 12:22:42;;;;;;;7.30;1.80;;;;;;;;;;4969793;28;20022;-65
2023/04/21 12:25:07;;;;;;;7.22;1.77;;;;;;;;;;4971690;28;20011;-65
2023/04/21 12:27:33;;;;;;;9.15;2.30;;;;;;;;;;4971857;28;20129;-66
2023/04/21 12:29:58;;;;;;;12.80;2.30;;;;;;;;;;4972225;28;20491;-71
2023/04/21 12:32:23;;;;;;;6.88;2.25;;;;;;;;;;4971851;28;20023;-67
2023/04/21 12:34:48;;;;;;;9.00;2.10;;;;;;;;;;4974860;28;20031;-67
2023/04/21 12:37:13;;;;;;;7.03;2.17;;;;;;;;;;4970839;28;20084;-64
2023/04/21 12:39:39;;;;;;;10.98;2.58;;;;;;;;;;4969960;28;20019;-65
2023/04/21 12:42:05;;;;;;;9.47;2.23;;;;;;;;;;4972148;28;20046;-65
2023/04/21 12:44:30;;;;;;;6.28;2.28;;;;;;;;;;4971591;28;20114;-64
2023/04/21 12:46:56;;;;;;;5.65;2.00;;;;;;;;;;4971241;28;20103;-64
2023/04/21 12:49:21;;;;;;;9.82;2.28;;;;;;;;;;4971584;28;20089;-65
2023/04/21 12:51:47;;;;;;;6.27;2.10;;;;;;;;;;4971637;28;20449;-67
2023/04/21 12:54:13;;;;;;;8.45;2.15;;;;;;;;;;4971305;28;20058;-69
2023/04/21 12:56:39;;;;;;;9.05;2.33;;;;;;;;;;4971895;28;20857;-69
2023/04/21 12:59:05;;;;;;;6.07;1.85;;;;;;;;;;4977707;28;20554;-64
2023/04/21 13:01:30;;;;;;;8.30;2.22;;;;;;;;;;4971940;28;20022;-67
2023/04/21 13:03:55;;;;;;;7.22;2.13;;;;;;;;;;4971321;28;20052;-65
2023/04/21 13:06:20;;;;;;;6.35;2.30;;;;;;;;;;4971037;28;20038;-68
2023/04/21 13:08:46;;;;;;;7.10;2.10;;;;;;;;;;4972898;28;20490;-65
2023/04/21 13:11:11;;;;;;;6.30;2.03;;;;;;;;;;4976155;28;20073;-65
2023/04/21 13:13:36;;;;;;;10.05;2.20;;;;;;;;;;4975223;28;20050;-64
2023/04/21 13:16:01;;;;;;;7.85;2.45;;;;;;;;;;4976046;28;20010;-65
2023/04/21 13:18:26;;;;;;;9.95;2.00;;;;;;;;;;4979848;28;20054;-64
2023/04/21 13:20:51;;;;;;;10.02;2.10;;;;;;;;;;4974877;28;20131;-66
2023/04/21 13:23:17;;;;;;;11.35;2.22;;;;;;;;;;4975634;28;20019;-68
2023/04/21 13:25:44;;;;;;;6.87;2.37;;;;;;;;;;4972469;28;20027;-72
2023/04/21 13:28:09;;;;;;;9.07;2.17;;;;;;;;;;4968132;28;20129;-65
2023/04/21 13:30:35;;;;;;;7.70;2.63;;;;;;;;;;4973581;28;20615;-64
2023/04/21 13:33:00;;;;;;;8.93;2.35;;;;;;;;;;4974472;28;20042;-64
2023/04/21 13:35:25;;;;;;;8.97;2.00;;;;;;;;;;4975149;28;20051;-65
2023/04/21 13:37:51;;;;;;;6.03;1.98;;;;;;;;;;4974629;28;20019;-66
2023/04/21 13:40:16;;;;;;;8.47;2.10;;;;;;;;;;4970619;28;20146;-66
2023/04/21 13:42:41;;;;;;;7.13;2.30;;;;;;;;;;4971346;28;20029;-69
2023/04/21 13:45:06;;;;;;;7.57;1.90;;;;;;;;;;4968657;28;20030;-66
2023/04/21 13:47:32;;;;;;;5.80;2.10;;;;;;;;;;4965593;28;20105;-70
2023/04/21 13:49:57;;;;;;;7.82;2.10;;;;;;;;;;4973916;28;20034;-70
2023/04/21 13:52:22;;;;;;;7.30;2.00;;;;;;;;;;4974689;28;20435;-65
2023/04/21 13:54:47;;;;;;;4.90;2.00;;;;;;;;;;4972521;28;20019;-66
2023/04/21 13:57:13;;;;;;;6.90;2.10;;;;;;;;;;4972886;28;20023;-65
2023/04/21 13:59:38;;;;;;;5.83;1.63;;;;;;;;;;4971950;28;22011;-69
2023/04/21 14:02:03;;;;;;;6.80;2.05;;;;;;;;;;4972280;28;20106;-68
2023/04/21 14:04:29;;;;;;;6.95;2.35;;;;;;;;;;4973638;28;20030;-65
2023/04/21 14:06:54;;;;;;;11.13;2.30;;;;;;;;;;4974065;28;20118;-65
2023/04/21 14:09:19;;;;;;;10.07;2.43;;;;;;;;;;4974221;28;20030;-64
2023/04/21 14:11:45;;;;;;;6.22;2.70;;;;;;;;;;4972115;28;20117;-66
2023/04/21 14:14:10;;;;;;;8.93;2.83;;;;;;;;;;4967029;28;20030;-68
2023/04/21 14:16:35;;;;;;;10.85;2.63;;;;;;;;;;4965278;28;20019;-66
2023/04/21 14:19:00;;;;;;;8.13;3.27;;;;;;;;;;4969804;28;20030;-65
2023/04/21 14:21:25;;;;;;;6.67;2.67;;;;;;;;;;4960449;28;20023;-65